Time;durP1;ratioP1;P1;durP2;ratioP2;P2;SDS_P1;SDS_P2;PMS_P1;PMS_P2;Temp;Humidity;BMP_temperature;BMP_pressure;BME280_temperature;BME280_humidity;BME280_pressure;Samples;Min_cycle;Max_cycle;Signal;HPM_P1;HPM_P2
2024/01/04 00:02:07;;;;;;;0.75;0.75;;;;;;;6.43;100.00;93910.81;4992283;28;20634;-71
2024/01/04 00:04:34;;;;;;;0.43;0.43;;;;;;;6.15;100.00;93914.19;4992038;28;20214;-71
2024/01/04 00:07:00;;;;;;;0.65;0.65;;;;;;;6.11;100.00;93903.28;4993553;28;20205;-71
2024/01/04 00:09:27;;;;;;;0.20;0.20;;;;;;;6.10;100.00;93917.81;4996885;28;20263;-72
2024/01/04 00:11:54;;;;;;;0.25;0.25;;;;;;;5.92;100.00;93910.84;4997720;28;20204;-73
2024/01/04 00:14:21;;;;;;;1.38;1.27;;;;;;;5.93;100.00;93923.19;4997512;28;20209;-73
2024/01/04 00:16:48;;;;;;;0.65;0.65;;;;;;;5.92;100.00;93929.66;4995121;28;20213;-72
2024/01/04 00:19:16;;;;;;;0.25;0.25;;;;;;;5.95;100.00;93920.97;5000266;28;20292;-72
2024/01/04 00:21:43;;;;;;;0.20;0.20;;;;;;;5.88;100.00;93907.16;4999447;28;20605;-74
2024/01/04 00:24:10;;;;;;;0.73;0.73;;;;;;;5.93;100.00;93913.22;5001922;28;20213;-72
2024/01/04 00:26:37;;;;;;;0.45;0.45;;;;;;;5.79;100.00;93904.50;4999522;28;20202;-71
2024/01/04 00:29:04;;;;;;;0.38;0.38;;;;;;;5.60;100.00;93894.03;5001721;28;20212;-72
2024/01/04 00:31:31;;;;;;;0.30;0.30;;;;;;;5.63;100.00;93909.53;5002075;28;20201;-75
2024/01/04 00:33:57;;;;;;;0.40;0.40;;;;;;;5.63;100.00;93906.84;4998521;28;20319;-73
2024/01/04 00:36:25;;;;;;;0.10;0.10;;;;;;;5.64;100.00;93900.38;4999786;28;20217;-75
2024/01/04 00:38:52;;;;;;;0.20;0.20;;;;;;;5.59;100.00;93905.91;4998983;28;20206;-77
2024/01/04 00:41:19;;;;;;;0.85;0.65;;;;;;;5.40;100.00;93904.59;4999723;28;20205;-73
2024/01/04 00:43:46;;;;;;;0.20;0.20;;;;;;;5.37;100.00;93916.75;5002349;28;20586;-74
2024/01/04 00:46:13;;;;;;;0.20;0.20;;;;;;;5.41;100.00;93909.66;5001278;28;20612;-75
2024/01/04 00:48:39;;;;;;;0.28;0.28;;;;;;;5.51;100.00;93917.41;4998935;28;20201;-75
2024/01/04 00:51:06;;;;;;;4.03;0.68;;;;;;;5.43;100.00;93925.47;4998679;28;20208;-75
2024/01/04 00:53:35;;;;;;;0.52;0.52;;;;;;;5.59;100.00;93919.34;4995685;28;20229;-73
2024/01/04 00:56:02;;;;;;;0.20;0.20;;;;;;;5.58;100.00;93923.13;4996504;28;20234;-74
2024/01/04 00:58:28;;;;;;;3.20;0.57;;;;;;;5.63;100.00;93931.00;4997761;28;20706;-75
2024/01/04 01:00:55;;;;;;;0.63;0.55;;;;;;;5.60;100.00;93931.63;4997254;28;20216;-74
2024/01/04 01:03:22;;;;;;;1.27;0.65;;;;;;;5.65;100.00;93933.41;4997522;28;20577;-73
2024/01/04 01:05:49;;;;;;;0.63;0.63;;;;;;;5.83;100.00;93944.97;4999567;28;20600;-73
2024/01/04 01:08:16;;;;;;;0.30;0.30;;;;;;;5.82;100.00;93932.63;4997117;28;20209;-73
2024/01/04 01:10:45;;;;;;;0.63;0.63;;;;;;;5.65;100.00;93928.03;4997758;28;20227;-74
2024/01/04 01:13:11;;;;;;;0.75;0.68;;;;;;;5.37;100.00;93927.47;5005057;28;20537;-74
2024/01/04 01:15:39;;;;;;;0.63;0.63;;;;;;;5.58;100.00;93922.34;5000631;28;20236;-74
2024/01/04 01:18:06;;;;;;;0.20;0.20;;;;;;;5.55;100.00;93923.75;5006378;28;20209;-75
2024/01/04 01:20:33;;;;;;;0.43;0.43;;;;;;;5.44;100.00;93925.16;4999902;28;20208;-74
2024/01/04 01:22:59;;;;;;;0.20;0.20;;;;;;;5.54;100.00;93934.78;5006642;28;20284;-74
2024/01/04 01:25:26;;;;;;;0.25;0.25;;;;;;;5.51;100.00;93936.22;5000755;28;20299;-75
2024/01/04 01:27:54;;;;;;;0.20;0.20;;;;;;;5.67;100.00;93926.59;5003237;28;20202;-74
2024/01/04 01:30:21;;;;;;;0.63;0.52;;;;;;;5.77;100.00;93940.84;4997461;28;20205;-74
2024/01/04 01:32:48;;;;;;;0.20;0.20;;;;;;;5.64;100.00;93943.34;4999908;28;20802;-74
2024/01/04 01:35:15;;;;;;;0.30;0.30;;;;;;;5.70;100.00;93941.31;5005424;28;20248;-75
2024/01/04 01:37:42;;;;;;;0.20;0.20;;;;;;;5.70;100.00;93939.41;5003081;28;20650;-75
2024/01/04 01:40:09;;;;;;;0.73;0.73;;;;;;;5.65;100.00;93934.19;5005170;28;20541;-75
2024/01/04 01:42:36;;;;;;;1.60;0.65;;;;;;;5.76;100.00;93934.66;5004234;28;20202;-75
2024/01/04 01:45:04;;;;;;;0.20;0.20;;;;;;;5.80;100.00;93934.84;5001985;28;20212;-75
2024/01/04 01:47:32;;;;;;;1.02;1.02;;;;;;;5.98;100.00;93926.53;5002412;28;20566;-75
2024/01/04 01:49:59;;;;;;;0.63;0.63;;;;;;;6.05;100.00;93931.41;4999207;28;20603;-74
2024/01/04 01:52:26;;;;;;;0.45;0.45;;;;;;;6.21;100.00;93945.97;5004133;28;20201;-74
2024/01/04 01:54:53;;;;;;;0.40;0.40;;;;;;;6.37;100.00;93938.22;5004777;28;20212;-75
2024/01/04 01:57:20;;;;;;;0.20;0.20;;;;;;;6.35;100.00;93956.56;5002950;28;21819;-74
2024/01/04 01:59:47;;;;;;;0.20;0.20;;;;;;;6.37;100.00;93939.00;5005358;28;20727;-74
2024/01/04 02:02:16;;;;;;;0.30;0.30;;;;;;;6.53;100.00;93935.81;5008938;28;20201;-75
2024/01/04 02:04:43;;;;;;;1.15;0.75;;;;;;;6.63;100.00;93933.59;5007490;28;20256;-74
2024/01/04 02:07:10;;;;;;;0.32;0.32;;;;;;;6.61;100.00;93932.31;5001570;28;20684;-74
2024/01/04 02:09:37;;;;;;;0.20;0.20;;;;;;;6.56;100.00;93935.19;5005648;28;20284;-74
2024/01/04 02:12:05;;;;;;;0.20;0.20;;;;;;;6.53;100.00;93927.75;5006235;28;20209;-74
2024/01/04 02:14:32;;;;;;;0.20;0.20;;;;;;;6.50;100.00;93936.47;5001861;28;20206;-74
2024/01/04 02:16:59;;;;;;;1.45;0.95;;;;;;;6.54;100.00;93932.81;5003801;28;20237;-74
2024/01/04 02:19:28;;;;;;;0.32;0.32;;;;;;;6.62;100.00;93928.53;5003540;28;20208;-75
2024/01/04 02:21:55;;;;;;;0.30;0.30;;;;;;;6.62;100.00;93923.13;5006050;28;20201;-73
2024/01/04 02:24:23;;;;;;;0.40;0.40;;;;;;;6.51;100.00;93929.97;5004314;28;20255;-74
2024/01/04 02:26:50;;;;;;;0.20;0.20;;;;;;;6.41;100.00;93929.19;4999643;28;20252;-74
2024/01/04 02:29:17;;;;;;;0.35;0.35;;;;;;;6.51;100.00;93930.75;5005082;28;20565;-74
2024/01/04 02:31:45;;;;;;;0.20;0.20;;;;;;;6.56;100.00;93919.81;5004207;28;20606;-74
2024/01/04 02:34:12;;;;;;;0.20;0.20;;;;;;;6.50;100.00;93898.78;4999952;28;20209;-73
2024/01/04 02:36:39;;;;;;;0.20;0.20;;;;;;;6.63;100.00;93895.91;5002604;28;20229;-74
2024/01/04 02:39:06;;;;;;;0.30;0.30;;;;;;;6.60;100.00;93882.31;5002598;28;20217;-74
2024/01/04 02:41:34;;;;;;;3.22;2.65;;;;;;;6.70;100.00;93882.75;5004181;28;20201;-74
2024/01/04 02:44:01;;;;;;;0.75;0.60;;;;;;;6.79;100.00;93880.03;5003436;28;20210;-73
2024/01/04 02:46:27;;;;;;;0.50;0.50;;;;;;;6.85;100.00;93883.34;5003325;28;20198;-75
2024/01/04 02:48:54;;;;;;;0.20;0.20;;;;;;;6.87;100.00;93881.91;5003766;28;20556;-74
2024/01/04 02:51:21;;;;;;;0.40;0.40;;;;;;;6.69;100.00;93875.81;5001496;28;20209;-75
2024/01/04 02:53:48;;;;;;;0.20;0.20;;;;;;;6.60;100.00;93866.16;5002298;28;20206;-74
2024/01/04 02:56:15;;;;;;;0.40;0.40;;;;;;;6.58;100.00;93860.31;4999942;28;20579;-74
2024/01/04 02:58:45;;;;;;;0.20;0.20;;;;;;;6.44;100.00;93849.75;5009260;28;20241;-75
2024/01/04 03:01:11;;;;;;;0.20;0.20;;;;;;;6.33;100.00;93857.38;4994713;28;20263;-75
2024/01/04 03:03:38;;;;;;;0.55;0.55;;;;;;;6.34;100.00;93874.28;4999767;28;20209;-74
2024/01/04 03:06:05;;;;;;;0.20;0.20;;;;;;;6.89;100.00;93863.53;5012685;28;20205;-74
2024/01/04 03:08:32;;;;;;;0.20;0.20;;;;;;;7.26;98.74;93853.06;5012335;28;20213;-74
2024/01/04 03:10:59;;;;;;;0.43;0.43;;;;;;;7.05;98.72;93851.13;5010533;28;20216;-74
2024/01/04 03:13:26;;;;;;;0.20;0.20;;;;;;;6.80;100.00;93833.19;4995035;28;20581;-74
2024/01/04 03:15:54;;;;;;;0.35;0.35;;;;;;;6.41;100.00;93843.13;5006849;28;20758;-73
2024/01/04 03:18:21;;;;;;;0.20;0.20;;;;;;;6.11;100.00;93827.19;4998674;28;20209;-75
2024/01/04 03:20:48;;;;;;;0.20;0.20;;;;;;;6.14;100.00;93834.63;5000919;28;20221;-75
2024/01/04 03:23:15;;;;;;;0.20;0.20;;;;;;;6.27;100.00;93842.53;4992731;28;20224;-72
2024/01/04 03:25:41;;;;;;;0.32;0.32;;;;;;;6.21;100.00;93843.00;4993366;28;20210;-75
2024/01/04 03:28:08;;;;;;;0.20;0.20;;;;;;;5.99;100.00;93860.13;4992396;28;20217;-75
2024/01/04 03:30:35;;;;;;;0.10;0.10;;;;;;;5.98;100.00;93883.50;4993388;28;20243;-75
2024/01/04 03:33:03;;;;;;;0.43;0.43;;;;;;;6.02;100.00;93867.53;4992391;28;20205;-76
2024/01/04 03:35:30;;;;;;;0.57;0.57;;;;;;;6.19;100.00;93851.38;4992836;28;20307;-74
2024/01/04 03:37:57;;;;;;;0.20;0.20;;;;;;;6.15;100.00;93861.19;4992712;28;20540;-72
2024/01/04 03:40:24;;;;;;;0.20;0.20;;;;;;;6.26;100.00;93857.06;4999683;28;20618;-76
2024/01/04 03:42:51;;;;;;;0.22;0.22;;;;;;;6.25;100.00;93855.50;5009947;28;20268;-74
2024/01/04 03:45:18;;;;;;;0.20;0.20;;;;;;;6.13;100.00;93858.03;5012256;28;20284;-74
2024/01/04 03:47:44;;;;;;;0.20;0.20;;;;;;;6.08;100.00;93850.13;5012375;28;20548;-73
2024/01/04 03:50:13;;;;;;;0.20;0.20;;;;;;;6.08;100.00;93860.88;5011603;28;20205;-75
2024/01/04 03:52:40;;;;;;;0.20;0.20;;;;;;;6.18;100.00;93849.78;5012334;28;20208;-76
2024/01/04 03:55:07;;;;;;;0.30;0.30;;;;;;;5.99;100.00;93836.72;5010384;28;20216;-77
2024/01/04 03:57:34;;;;;;;1.55;1.45;;;;;;;6.03;100.00;93855.66;4991586;28;20252;-74
2024/01/04 04:00:01;;;;;;;0.20;0.20;;;;;;;5.93;100.00;93850.63;4992283;28;20228;-76
2024/01/04 04:02:28;;;;;;;0.47;0.47;;;;;;;5.79;100.00;93855.34;5003521;28;20209;-73
2024/01/04 04:04:56;;;;;;;0.22;0.22;;;;;;;5.74;100.00;93842.84;4995895;28;20240;-74
2024/01/04 04:07:24;;;;;;;0.35;0.35;;;;;;;5.69;100.00;93848.38;4992198;28;20613;-74
2024/01/04 04:09:51;;;;;;;0.20;0.20;;;;;;;5.73;100.00;93835.91;5002096;28;20228;-74
2024/01/04 04:12:17;;;;;;;0.22;0.22;;;;;;;5.75;100.00;93840.94;5010842;28;20219;-74
2024/01/04 04:14:45;;;;;;;0.30;0.30;;;;;;;8.46;100.00;93833.28;5011753;28;20764;-78
2024/01/04 04:17:14;;;;;;;0.30;0.30;;;;;;;9.67;100.00;93828.25;5002828;28;20236;-76
2024/01/04 04:19:40;;;;;;;0.28;0.28;;;;;;;9.31;100.00;93839.88;4997536;28;20205;-75
2024/01/04 04:22:07;;;;;;;0.20;0.20;;;;;;;8.11;100.00;93832.00;5011723;28;20218;-73
2024/01/04 04:24:35;;;;;;;0.35;0.35;;;;;;;6.66;100.00;93835.28;5009648;28;20452;-74
2024/01/04 04:27:02;;;;;;;0.20;0.20;;;;;;;6.30;100.00;93855.31;5010388;28;20201;-74
2024/01/04 04:29:29;;;;;;;0.20;0.20;;;;;;;5.87;100.00;93833.06;5010748;28;20213;-75
2024/01/04 04:31:56;;;;;;;0.20;0.20;;;;;;;5.65;100.00;93831.31;5010986;28;20212;-75
2024/01/04 04:34:23;;;;;;;0.20;0.20;;;;;;;5.66;100.00;93833.69;5010693;28;20235;-74
2024/01/04 04:36:50;;;;;;;0.20;0.20;;;;;;;5.71;100.00;93835.44;4993035;28;20256;-73
2024/01/04 04:39:17;;;;;;;0.57;0.57;;;;;;;5.71;100.00;93857.72;4991612;28;20217;-75
2024/01/04 04:41:45;;;;;;;0.45;0.45;;;;;;;5.59;100.00;93838.75;4992464;28;20209;-74
2024/01/04 04:44:12;;;;;;;0.20;0.20;;;;;;;5.67;100.00;93846.00;4994979;28;20209;-75
2024/01/04 04:46:38;;;;;;;0.40;0.40;;;;;;;5.55;100.00;93843.16;5010771;28;20200;-75
2024/01/04 04:49:07;;;;;;;0.30;0.30;;;;;;;5.56;100.00;93831.31;4998766;28;20280;-73
2024/01/04 04:51:34;;;;;;;0.20;0.20;;;;;;;5.64;100.00;93841.25;5001834;28;20233;-75
2024/01/04 04:54:01;;;;;;;0.28;0.28;;;;;;;5.66;100.00;93843.63;5010278;28;20211;-74
2024/01/04 04:56:28;;;;;;;0.20;0.20;;;;;;;5.56;100.00;93855.50;5009977;28;20229;-74
2024/01/04 04:58:56;;;;;;;0.30;0.30;;;;;;;5.49;100.00;93841.72;4994852;28;20243;-74
2024/01/04 05:01:23;;;;;;;0.20;0.20;;;;;;;5.41;100.00;93836.34;5006792;28;20213;-73
2024/01/04 05:03:50;;;;;;;0.30;0.30;;;;;;;5.54;100.00;93844.25;4998968;28;20212;-74
2024/01/04 05:06:17;;;;;;;0.82;0.68;;;;;;;5.39;100.00;93846.63;5009812;28;20654;-74
2024/01/04 05:08:45;;;;;;;13.68;1.65;;;;;;;5.20;100.00;93825.41;4991775;28;20658;-76
2024/01/04 05:11:11;;;;;;;0.40;0.40;;;;;;;5.52;100.00;93843.78;4992075;28;20237;-75
2024/01/04 05:13:38;;;;;;;0.20;0.20;;;;;;;5.26;100.00;93870.59;5011181;28;20244;-76
2024/01/04 05:16:07;;;;;;;0.20;0.20;;;;;;;5.22;100.00;93866.16;4999609;28;20236;-74
2024/01/04 05:18:34;;;;;;;0.10;0.10;;;;;;;4.92;100.00;93887.38;5005028;28;20213;-75
2024/01/04 05:21:01;;;;;;;0.20;0.20;;;;;;;5.20;100.00;93877.22;5010111;28;20212;-75
2024/01/04 05:23:28;;;;;;;0.65;0.65;;;;;;;5.15;100.00;93893.47;5011118;28;20205;-75
2024/01/04 05:25:54;;;;;;;2.42;0.50;;;;;;;5.20;100.00;93893.31;5010148;28;20224;-75
2024/01/04 05:28:21;;;;;;;0.20;0.20;;;;;;;5.18;100.00;93886.69;5002541;28;20601;-76
2024/01/04 05:30:48;;;;;;;0.20;0.20;;;;;;;5.13;100.00;93913.69;4991511;28;20218;-76
2024/01/04 05:33:16;;;;;;;0.20;0.20;;;;;;;5.04;100.00;93865.34;4991355;28;20221;-75
2024/01/04 05:35:43;;;;;;;0.82;0.47;;;;;;;5.17;100.00;93877.06;4992045;28;20614;-76
2024/01/04 05:38:10;;;;;;;0.73;0.40;;;;;;;5.17;100.00;93866.31;4991708;28;20284;-76
2024/01/04 05:40:37;;;;;;;0.20;0.20;;;;;;;5.29;100.00;93871.88;4993316;28;20206;-75
2024/01/04 05:43:04;;;;;;;0.20;0.20;;;;;;;5.33;100.00;93865.56;5003714;28;20221;-75
2024/01/04 05:45:31;;;;;;;0.20;0.20;;;;;;;5.47;100.00;93857.34;4991693;28;20221;-75
2024/01/04 05:47:58;;;;;;;0.20;0.20;;;;;;;5.61;100.00;93860.69;5007908;28;20570;-74
2024/01/04 05:50:26;;;;;;;0.20;0.20;;;;;;;5.57;100.00;93851.69;5010872;28;20204;-75
2024/01/04 05:52:53;;;;;;;0.20;0.20;;;;;;;5.67;100.00;93854.06;5011004;28;20304;-75
2024/01/04 05:55:20;;;;;;;0.20;0.20;;;;;;;5.67;100.00;93862.13;5013499;28;20232;-76
2024/01/04 05:57:46;;;;;;;0.73;0.73;;;;;;;5.71;100.00;93873.03;5006725;28;20859;-75
2024/01/04 06:00:15;;;;;;;0.35;0.35;;;;;;;5.58;100.00;93853.28;5011709;28;20680;-75
2024/01/04 06:02:41;;;;;;;0.20;0.20;;;;;;;5.64;100.00;93843.94;5014368;28;20209;-75
2024/01/04 06:05:09;;;;;;;0.20;0.20;;;;;;;5.50;100.00;93854.06;5006531;28;20288;-75
2024/01/04 06:07:37;;;;;;;0.30;0.30;;;;;;;5.58;100.00;93882.84;5004868;28;20208;-75
2024/01/04 06:10:05;;;;;;;0.20;0.20;;;;;;;5.30;100.00;93876.16;5005587;28;20217;-75
2024/01/04 06:12:32;;;;;;;0.30;0.30;;;;;;;5.27;100.00;93880.25;5006769;28;20200;-74
2024/01/04 06:14:59;;;;;;;0.40;0.40;;;;;;;5.64;100.00;93889.63;5003754;28;20561;-76
2024/01/04 06:17:25;;;;;;;0.70;0.70;;;;;;;6.01;100.00;93898.22;5001799;28;20336;-75
2024/01/04 06:19:52;;;;;;;0.50;0.50;;;;;;;6.23;100.00;93868.47;5011672;28;20212;-75
2024/01/04 06:22:19;;;;;;;0.20;0.20;;;;;;;6.82;100.00;93882.09;5013631;28;20204;-74
2024/01/04 06:24:47;;;;;;;0.20;0.20;;;;;;;6.85;100.00;93867.97;5013610;28;20217;-74
2024/01/04 06:27:14;;;;;;;0.20;0.20;;;;;;;7.02;99.98;93886.75;5013510;28;20259;-74
2024/01/04 06:29:40;;;;;;;0.52;0.52;;;;;;;7.06;100.00;93885.00;5012861;28;20201;-74
2024/01/04 06:32:08;;;;;;;0.20;0.20;;;;;;;6.76;99.99;93881.47;5005607;28;20225;-73
2024/01/04 06:34:34;;;;;;;0.20;0.20;;;;;;;6.42;100.00;93868.88;5008076;28;20209;-73
2024/01/04 06:37:01;;;;;;;0.30;0.30;;;;;;;6.56;100.00;93881.38;5002484;28;20577;-74
2024/01/04 06:39:28;;;;;;;0.80;0.60;;;;;;;6.25;100.00;93879.69;5013129;28;20220;-73
2024/01/04 06:41:57;;;;;;;0.20;0.20;;;;;;;6.52;100.00;93893.88;5004138;28;20201;-74
2024/01/04 06:44:24;;;;;;;0.43;0.43;;;;;;;6.86;100.00;93879.53;5012835;28;20205;-74
2024/01/04 06:46:51;;;;;;;0.20;0.20;;;;;;;6.95;100.00;93878.41;5012738;28;20208;-74
2024/01/04 06:49:18;;;;;;;0.40;0.40;;;;;;;6.95;100.00;93873.03;5012803;28;20580;-75
2024/01/04 06:51:45;;;;;;;0.25;0.25;;;;;;;7.24;100.00;93863.38;5008240;28;20209;-75
2024/01/04 06:54:12;;;;;;;0.20;0.20;;;;;;;7.27;100.00;93850.03;5005515;28;20224;-74
2024/01/04 06:56:39;;;;;;;0.38;0.35;;;;;;;7.60;100.00;93860.94;5012274;28;20251;-74
2024/01/04 06:59:07;;;;;;;0.20;0.20;;;;;;;7.72;100.00;93869.09;5022071;28;20601;-74
2024/01/04 07:01:34;;;;;;;0.35;0.35;;;;;;;8.07;100.00;93866.13;5012514;28;20578;-75
2024/01/04 07:04:01;;;;;;;0.88;0.88;;;;;;;8.06;97.88;93856.50;5001854;28;20205;-75
2024/01/04 07:06:27;;;;;;;0.20;0.20;;;;;;;8.25;98.74;93864.88;5011473;28;20212;-77
2024/01/04 07:29:43;;;;;;;0.43;0.43;;;;;;;9.31;93.91;93883.13;5554865;22;20235;-81
2024/01/04 07:32:11;;;;;;;3.30;1.17;;;;;;;9.12;92.74;93870.97;5027752;28;20222;-79
2024/01/04 07:34:39;;;;;;;0.95;0.90;;;;;;;9.34;92.56;93850.03;5031927;28;20204;-77
2024/01/04 07:37:07;;;;;;;0.28;0.28;;;;;;;9.60;92.08;93832.31;5030212;28;20255;-79
2024/01/04 07:39:36;;;;;;;0.75;0.75;;;;;;;9.32;92.57;93830.66;5027826;28;20204;-80
2024/01/04 07:42:03;;;;;;;1.05;0.57;;;;;;;9.49;94.02;93839.31;5029610;28;20219;-80
2024/01/04 07:44:30;;;;;;;0.20;0.20;;;;;;;9.73;93.22;93830.38;5027428;28;20208;-80
2024/01/04 07:46:59;;;;;;;0.73;0.73;;;;;;;10.04;91.99;93828.94;5030581;28;20208;-83
2024/01/04 07:49:26;;;;;;;0.77;0.77;;;;;;;9.86;91.08;93807.56;5030735;28;20211;-80
2024/01/04 07:51:53;;;;;;;0.50;0.50;;;;;;;9.69;92.46;93810.56;5032151;28;20251;-85
2024/01/04 07:54:20;;;;;;;2.05;0.95;;;;;;;9.90;91.38;93805.75;5032919;28;20215;-83
2024/01/04 07:56:47;;;;;;;0.20;0.20;;;;;;;9.71;90.44;93816.41;5032440;28;20571;-80
2024/01/04 07:59:14;;;;;;;0.20;0.20;;;;;;;9.90;91.39;93824.69;5030994;28;20215;-83
2024/01/04 08:01:41;;;;;;;0.85;0.85;;;;;;;9.60;91.11;93810.69;5031597;28;20215;-83
2024/01/04 08:04:09;;;;;;;1.23;1.15;;;;;;;9.05;93.32;93803.19;5035129;28;20628;-80
2024/01/04 08:06:36;;;;;;;0.43;0.43;;;;;;;9.03;92.88;93786.53;5042012;28;20212;-76
2024/01/04 08:09:03;;;;;;;0.73;0.73;;;;;;;9.10;92.31;93786.75;5480698;22;20240;-76
2024/01/04 08:11:30;;;;;;;0.50;0.50;;;;;;;9.22;90.41;93792.16;4913243;22;20638;-82
2024/01/04 08:13:58;;;;;;;0.20;0.20;;;;;;;9.26;90.09;93784.16;5091449;28;20432;-83
2024/01/04 08:16:25;;;;;;;0.68;0.68;;;;;;;9.22;89.74;93767.84;5088421;28;20614;-80
2024/01/04 08:18:52;;;;;;;1.00;0.90;;;;;;;9.34;89.37;93777.06;5092662;28;20574;-80
2024/01/04 08:28:20;;;;;;;0.20;0.20;;;;;;;9.91;85.95;93799.22;4957512;22;20681;-73
2024/01/04 08:30:47;;;;;;;1.15;1.00;;;;;;;9.63;87.38;93798.41;5089448;28;20190;-72
2024/01/04 08:33:14;;;;;;;0.30;0.30;;;;;;;9.70;88.57;93804.03;5091601;28;20214;-73
2024/01/04 08:35:41;;;;;;;1.23;1.13;;;;;;;9.55;88.35;93788.50;5091312;28;20218;-73
2024/01/04 08:38:08;;;;;;;0.40;0.40;;;;;;;9.61;87.83;93785.22;5099268;28;20230;-73
2024/01/04 08:40:36;;;;;;;0.20;0.20;;;;;;;9.40;89.22;93781.09;5101558;28;20217;-74
2024/01/04 08:43:03;;;;;;;0.40;0.40;;;;;;;9.40;90.49;93781.09;5111798;28;20244;-74
2024/01/04 08:45:31;;;;;;;0.40;0.40;;;;;;;9.24;90.61;93789.91;5101969;28;20210;-74
2024/01/04 08:47:58;;;;;;;1.55;0.50;;;;;;;9.39;89.50;93782.22;5090907;28;20214;-75
2024/01/04 08:50:25;;;;;;;1.75;0.60;;;;;;;9.46;89.34;93777.03;5090457;28;20608;-75
2024/01/04 08:52:52;;;;;;;1.52;1.23;;;;;;;9.45;88.33;93767.34;5090434;28;20202;-74
2024/01/04 08:55:20;;;;;;;0.35;0.35;;;;;;;9.35;88.91;93770.53;5093538;28;20212;-72
2024/01/04 08:57:47;;;;;;;1.55;0.90;;;;;;;9.74;88.31;93775.16;5086519;28;20225;-74
2024/01/04 09:00:14;;;;;;;0.50;0.50;;;;;;;10.05;86.99;93771.00;5085810;28;20565;-73
2024/01/04 09:02:45;;;;;;;0.22;0.22;;;;;;;10.26;85.95;93774.28;5101381;28;20288;-74
2024/01/04 09:05:12;;;;;;;1.08;1.02;;;;;;;10.15;84.40;93781.31;5109955;28;20276;-77
2024/01/04 09:07:39;;;;;;;0.20;0.20;;;;;;;10.05;83.11;93781.81;5090874;28;20217;-75
2024/01/04 09:10:07;;;;;;;0.10;0.10;;;;;;;9.84;84.52;93760.38;5090653;28;20210;-75
2024/01/04 09:12:34;;;;;;;0.20;0.20;;;;;;;9.82;84.57;93762.63;5082461;28;20252;-73
2024/01/04 09:15:01;;;;;;;0.55;0.55;;;;;;;9.77;84.33;93755.53;5090836;28;20218;-73
2024/01/04 09:17:28;;;;;;;0.55;0.55;;;;;;;9.47;85.05;93735.34;5103140;28;20222;-75
2024/01/04 09:19:57;;;;;;;0.28;0.28;;;;;;;9.56;86.05;93744.13;5091561;28;20206;-74
2024/01/04 09:22:24;;;;;;;0.20;0.20;;;;;;;9.67;85.22;93742.50;5102595;28;20225;-74
2024/01/04 09:24:51;;;;;;;0.20;0.20;;;;;;;9.71;84.68;93737.97;5111310;28;20572;-75
2024/01/04 09:27:18;;;;;;;0.32;0.32;;;;;;;9.76;84.94;93753.97;5096925;28;20612;-75
2024/01/04 09:29:47;;;;;;;0.57;0.57;;;;;;;9.62;84.52;93742.75;5093134;28;20238;-75
2024/01/04 09:32:13;;;;;;;0.73;0.73;;;;;;;9.49;86.20;93731.19;5094897;28;20267;-75
2024/01/04 09:34:40;;;;;;;0.65;0.65;;;;;;;9.73;85.75;93743.03;5094695;28;20224;-75
2024/01/04 09:37:09;;;;;;;0.60;0.60;;;;;;;9.99;83.91;93738.75;5095286;28;20283;-75
2024/01/04 09:39:37;;;;;;;0.22;0.22;;;;;;;10.11;83.21;93715.50;5094271;28;20230;-75
2024/01/04 09:42:06;;;;;;;0.30;0.30;;;;;;;10.20;83.47;93729.69;5094381;28;20248;-74
2024/01/04 09:44:34;;;;;;;0.20;0.20;;;;;;;10.48;82.77;93733.13;5081743;28;20470;-74
2024/01/04 09:47:08;;;;;;;0.30;0.30;;;;;;;10.18;82.02;93715.69;5088588;28;20646;-75
2024/01/04 09:49:35;;;;;;;0.20;0.20;;;;;;;10.01;83.06;93716.00;5106899;28;20216;-75
2024/01/04 09:52:02;;;;;;;1.15;1.05;;;;;;;10.24;82.57;93715.13;5096456;28;20275;-77
2024/01/04 09:54:31;;;;;;;0.30;0.30;;;;;;;10.48;81.59;93697.13;5095571;28;20230;-76
2024/01/04 09:57:00;;;;;;;0.43;0.43;;;;;;;10.52;81.36;93693.38;5090380;28;20206;-76
2024/01/04 09:59:27;;;;;;;0.25;0.25;;;;;;;10.37;80.64;93702.28;5098104;28;20577;-76
2024/01/04 10:02:01;;;;;;;0.20;0.20;;;;;;;10.49;80.39;93694.09;5097704;28;20199;-76
2024/01/04 10:04:29;;;;;;;0.20;0.20;;;;;;;10.63;79.99;93689.03;5105451;28;20335;-75
2024/01/04 10:06:59;;;;;;;0.50;0.50;;;;;;;10.50;80.33;93695.66;5106027;28;20608;-76
2024/01/04 10:09:29;;;;;;;0.30;0.30;;;;;;;10.31;80.89;93688.22;5086038;28;20203;-75
2024/01/04 10:12:05;;;;;;;0.20;0.20;;;;;;;10.61;80.36;93685.09;5087945;28;20277;-75
2024/01/04 10:14:33;;;;;;;0.52;0.52;;;;;;;10.66;79.22;93674.75;5088416;28;20660;-74
2024/01/04 10:17:00;;;;;;;0.40;0.40;;;;;;;10.81;79.64;93656.13;5093946;28;20213;-75
2024/01/04 10:19:28;;;;;;;0.22;0.22;;;;;;;11.19;78.82;93653.50;5095979;28;20588;-74
2024/01/04 10:22:01;;;;;;;0.30;0.30;;;;;;;11.42;77.87;93644.66;5094218;28;20599;-74
2024/01/04 10:24:30;;;;;;;1.05;0.65;;;;;;;11.12;77.73;93618.13;5093694;28;20206;-74
2024/01/04 10:26:59;;;;;;;0.85;0.85;;;;;;;11.12;78.48;93620.81;5093355;28;20236;-74
2024/01/04 10:29:26;;;;;;;1.88;0.50;;;;;;;10.89;78.81;93609.09;5095928;28;20237;-75
2024/01/04 10:32:00;;;;;;;0.20;0.20;;;;;;;11.20;78.59;93603.59;5113858;28;20250;-74
2024/01/04 10:34:27;;;;;;;0.20;0.20;;;;;;;11.33;77.78;93624.00;5098505;28;20202;-74
2024/01/04 10:36:55;;;;;;;0.40;0.40;;;;;;;11.68;77.70;93620.38;5093213;28;20225;-74
2024/01/04 10:39:22;;;;;;;0.45;0.45;;;;;;;11.50;77.02;93600.28;5097608;28;20229;-75
2024/01/04 10:42:01;;;;;;;2.65;1.75;;;;;;;11.46;76.64;93594.00;5113459;28;20561;-75
2024/01/04 10:44:29;;;;;;;2.75;1.70;;;;;;;11.64;76.43;93586.97;5101202;28;20198;-74
2024/01/04 10:46:57;;;;;;;9.52;1.05;;;;;;;12.06;76.14;93579.63;5093398;28;20271;-74
2024/01/04 10:49:25;;;;;;;2.35;0.95;;;;;;;12.14;73.99;93568.91;5092904;28;20282;-74
2024/01/04 10:51:53;;;;;;;0.20;0.20;;;;;;;12.29;71.51;93549.78;5093664;28;20210;-73
2024/01/04 10:54:20;;;;;;;0.20;0.20;;;;;;;12.43;72.17;93538.34;5093292;28;20624;-74
2024/01/04 10:56:48;;;;;;;1.88;0.88;;;;;;;12.75;72.13;93545.00;5093449;28;20202;-75
2024/01/04 10:59:18;;;;;;;0.20;0.20;;;;;;;12.95;71.06;93555.75;5092232;28;20293;-73
2024/01/04 11:01:47;;;;;;;0.60;0.60;;;;;;;13.18;71.68;93556.44;5095778;28;20194;-74
2024/01/04 11:04:15;;;;;;;3.85;1.65;;;;;;;13.19;69.48;93552.59;5092804;28;20217;-75
2024/01/04 11:06:42;;;;;;;1.30;1.20;;;;;;;13.35;69.49;93549.66;5092993;28;20313;-74
2024/01/04 11:09:10;;;;;;;0.35;0.30;;;;;;;13.38;68.39;93541.56;5092896;28;20210;-75
2024/01/04 11:11:37;;;;;;;0.30;0.30;;;;;;;13.86;67.53;93541.66;5092749;28;20209;-75
2024/01/04 11:14:04;;;;;;;1.27;0.98;;;;;;;13.84;66.45;93527.63;5092428;28;20203;-76
2024/01/04 11:16:50;;;;;;;0.98;0.75;;;;;;;14.20;65.15;93513.19;5092849;28;20198;-75
2024/01/04 11:19:27;;;;;;;0.63;0.52;;;;;;;14.66;64.57;93512.72;5092912;28;20218;-75
2024/01/04 11:22:12;;;;;;;0.30;0.30;;;;;;;14.86;60.75;93486.75;5088694;28;20213;-75
2024/01/04 11:24:55;;;;;;;0.20;0.20;;;;;;;14.63;63.63;93480.00;5109047;28;20191;-73
2024/01/04 11:27:23;;;;;;;0.30;0.30;;;;;;;14.17;66.83;93489.41;5093191;28;20657;-73
2024/01/04 11:29:51;;;;;;;1.65;0.90;;;;;;;14.11;67.36;93493.63;5090678;28;20559;-73
2024/01/04 11:32:20;;;;;;;1.20;1.00;;;;;;;14.09;66.84;93490.50;5093494;28;20206;-73
2024/01/04 11:34:48;;;;;;;1.35;0.95;;;;;;;14.08;66.97;93488.16;5107945;28;20221;-74
2024/01/04 11:37:18;;;;;;;3.17;1.08;;;;;;;14.40;67.60;93491.16;5108316;28;20670;-74
2024/01/04 11:40:03;;;;;;;3.10;1.40;;;;;;;14.65;68.56;93502.19;5097811;28;20263;-76
2024/01/04 11:42:35;;;;;;;1.58;1.15;;;;;;;14.15;65.29;93489.00;5093710;28;20560;-74
2024/01/04 11:45:04;;;;;;;2.88;1.30;;;;;;;14.62;66.99;93473.78;5091150;28;20209;-73
2024/01/04 11:47:38;;;;;;;3.45;1.15;;;;;;;14.58;65.26;93467.53;5093577;28;20297;-74
2024/01/04 11:50:14;;;;;;;1.23;1.00;;;;;;;14.75;64.99;93460.59;5091424;28;20383;-73
2024/01/04 11:52:41;;;;;;;4.78;1.10;;;;;;;14.99;64.94;93473.56;5092158;28;20197;-74
2024/01/04 11:55:09;;;;;;;0.65;0.65;;;;;;;15.07;61.95;93466.97;5083708;28;20203;-75
2024/01/04 11:57:36;;;;;;;1.27;1.00;;;;;;;15.37;61.18;93450.28;5091353;28;20752;-75
2024/01/04 12:00:14;;;;;;;0.55;0.40;;;;;;;15.22;60.76;93432.31;5091507;28;20225;-74
2024/01/04 12:02:42;;;;;;;1.17;0.82;;;;;;;15.20;59.63;93454.53;5088170;28;20198;-73
2024/01/04 12:05:09;;;;;;;0.32;0.32;;;;;;;15.16;58.79;93436.63;5091682;28;20797;-70